Time;durP1;ratioP1;P1;durP2;ratioP2;P2;SDS_P1;SDS_P2;PMS_P1;PMS_P2;Temp;Humidity;BMP_temperature;BMP_pressure;BME280_temperature;BME280_humidity;BME280_pressure;Samples;Min_cycle;Max_cycle;Signal;HPM_P1;HPM_P2
2023/05/09 00:01:10;;;;;;;;;;;11.20;51.90;;;;;;4128418;28;19910;-85
2023/05/09 00:03:13;;;;;;;;;;;11.10;51.70;;;;;;4128021;28;19924;-84
2023/05/09 00:05:13;;;;;;;;;;;11.20;51.80;;;;;;4129835;28;19926;-86
2023/05/09 00:07:14;;;;;;;;;;;11.20;51.90;;;;;;4130921;28;19978;-84
2023/05/09 00:09:18;;;;;;;;;;;11.10;51.80;;;;;;4130134;28;19913;-84
2023/05/09 00:11:19;;;;;;;;;;;11.20;51.80;;;;;;4128174;28;19932;-85
2023/05/09 00:13:19;;;;;;;;;;;11.10;51.80;;;;;;4148230;28;19965;-86
2023/05/09 00:15:20;;;;;;;;;;;11.10;51.90;;;;;;4146228;28;19917;-84
2023/05/09 00:17:23;;;;;;;;;;;11.00;51.80;;;;;;4115261;28;20341;-85
2023/05/09 00:19:24;;;;;;;;;;;11.00;51.80;;;;;;4140645;28;19932;-85
2023/05/09 00:21:28;;;;;;;;;;;11.00;51.90;;;;;;4134722;28;19957;-86
2023/05/09 00:23:29;;;;;;;;;;;11.00;51.80;;;;;;4127896;28;20449;-84
2023/05/09 00:25:29;;;;;;;;;;;11.00;51.80;;;;;;4146992;28;19929;-84
2023/05/09 00:27:30;;;;;;;;;;;10.90;51.90;;;;;;4147147;28;19918;-85
2023/05/09 00:29:31;;;;;;;;;;;11.00;52.00;;;;;;4130331;28;19940;-85
2023/05/09 00:31:51;;;;;;;;;;;11.00;51.90;;;;;;4147787;28;19917;-86
2023/05/09 00:34:12;;;;;;;;;;;10.90;51.90;;;;;;4132150;28;19918;-85
2023/05/09 00:36:17;;;;;;;;;;;10.80;52.10;;;;;;4126098;28;19985;-85
2023/05/09 00:38:38;;;;;;;;;;;10.90;52.10;;;;;;4142063;28;20055;-85
2023/05/09 00:41:01;;;;;;;;;;;10.80;52.00;;;;;;4144563;28;19909;-86
2023/05/09 00:43:22;;;;;;;;;;;10.70;52.00;;;;;;4129879;28;19924;-86
2023/05/09 00:45:44;;;;;;;;;;;10.70;52.60;;;;;;4136360;28;20391;-84
2023/05/09 00:48:04;;;;;;;;;;;10.70;52.00;;;;;;4145362;28;19921;-84
2023/05/09 00:50:25;;;;;;;;;;;10.60;52.00;;;;;;4136163;28;19917;-84
2023/05/09 00:52:46;;;;;;;;;;;10.60;52.10;;;;;;4128781;28;19940;-85
2023/05/09 00:55:07;;;;;;;;;;;10.70;52.30;;;;;;4129110;28;20443;-86
2023/05/09 00:57:27;;;;;;;;;;;10.50;52.10;;;;;;4145357;28;20533;-85
2023/05/09 00:59:48;;;;;;;;;;;10.60;52.20;;;;;;4133933;28;19925;-85
2023/05/09 01:02:09;;;;;;;;;;;10.60;52.30;;;;;;4131595;28;19918;-84
2023/05/09 01:04:30;;;;;;;;;;;10.50;52.30;;;;;;4144870;28;19921;-85
2023/05/09 01:06:36;;;;;;;;;;;10.50;52.40;;;;;;4130031;28;20012;-84
2023/05/09 01:08:45;;;;;;;;;;;10.50;52.30;;;;;;4125550;28;19918;-85
2023/05/09 01:10:50;;;;;;;;;;;10.50;52.40;;;;;;4128269;28;19910;-86
2023/05/09 01:12:51;;;;;;;;;;;10.50;52.40;;;;;;4126393;28;20680;-85
2023/05/09 01:15:10;;;;;;;;;;;10.50;52.50;;;;;;4116639;28;19922;-85
2023/05/09 01:17:13;;;;;;;;;;;10.50;52.40;;;;;;4140287;28;20408;-85
2023/05/09 01:19:20;;;;;;;;;;;10.60;52.50;;;;;;4143163;28;19914;-86
2023/05/09 01:21:25;;;;;;;;;;;10.50;52.50;;;;;;4128525;28;20638;-85
2023/05/09 01:23:26;;;;;;;;;;;10.50;52.50;;;;;;4129084;28;20415;-85
2023/05/09 01:25:54;;;;;;;;;;;10.60;52.60;;;;;;4126790;28;19949;-87
2023/05/09 01:27:55;;;;;;;;;;;10.50;52.40;;;;;;4138045;28;20283;-85
2023/05/09 01:29:56;;;;;;;;;;;10.50;52.50;;;;;;4125199;28;19920;-86
2023/05/09 01:31:57;;;;;;;;;;;10.50;52.50;;;;;;4143039;28;19947;-86
2023/05/09 01:33:58;;;;;;;;;;;10.50;52.50;;;;;;4125275;28;19957;-85
2023/05/09 01:36:02;;;;;;;;;;;10.50;52.50;;;;;;4127251;28;19918;-85
2023/05/09 01:38:08;;;;;;;;;;;10.50;52.50;;;;;;4141259;28;19918;-85
2023/05/09 01:40:16;;;;;;;;;;;10.50;52.50;;;;;;4125087;28;19925;-85
2023/05/09 01:42:19;;;;;;;;;;;10.50;52.40;;;;;;4144661;28;20394;-84
2023/05/09 01:44:20;;;;;;;;;;;10.60;52.50;;;;;;4145339;28;19925;-86
2023/05/09 01:46:23;;;;;;;;;;;10.60;52.50;;;;;;4111411;28;20392;-85
2023/05/09 01:48:28;;;;;;;;;;;10.60;52.50;;;;;;4107664;28;19940;-84
2023/05/09 01:50:30;;;;;;;;;;;10.50;52.50;;;;;;4141115;28;19920;-85
2023/05/09 01:52:30;;;;;;;;;;;10.60;52.50;;;;;;4111745;28;19983;-85
2023/05/09 01:54:35;;;;;;;;;;;10.50;52.50;;;;;;4122832;28;20265;-85
2023/05/09 01:56:36;;;;;;;;;;;10.50;52.50;;;;;;4141413;28;19929;-84
2023/05/09 01:58:38;;;;;;;;;;;10.50;52.50;;;;;;4145867;28;19914;-85
2023/05/09 02:00:39;;;;;;;;;;;10.50;52.50;;;;;;4111757;28;19941;-84
2023/05/09 02:02:40;;;;;;;;;;;10.50;52.50;;;;;;4126774;28;19924;-85
2023/05/09 02:04:42;;;;;;;;;;;10.50;52.50;;;;;;4141863;28;19953;-85
2023/05/09 02:06:43;;;;;;;;;;;10.50;52.50;;;;;;4108373;28;19918;-85
2023/05/09 02:08:49;;;;;;;;;;;10.50;52.50;;;;;;4124573;28;19996;-85
2023/05/09 02:10:50;;;;;;;;;;;10.50;52.50;;;;;;4109655;28;20007;-86
2023/05/09 02:12:51;;;;;;;;;;;10.50;52.60;;;;;;4144818;28;19913;-85
2023/05/09 02:14:58;;;;;;;;;;;10.50;52.60;;;;;;4126847;28;20001;-84
2023/05/09 02:17:20;;;;;;;;;;;10.50;52.60;;;;;;4139559;28;19917;-84
2023/05/09 02:19:41;;;;;;;;;;;10.50;52.60;;;;;;4141425;28;19918;-85
2023/05/09 02:22:03;;;;;;;;;;;10.50;52.60;;;;;;4129331;28;21702;-84
2023/05/09 02:24:24;;;;;;;;;;;10.50;52.70;;;;;;4144814;28;19917;-86
2023/05/09 02:26:45;;;;;;;;;;;10.40;52.60;;;;;;4145185;28;20082;-84
2023/05/09 02:29:06;;;;;;;;;;;10.50;52.70;;;;;;4126789;28;20217;-85
2023/05/09 02:31:27;;;;;;;;;;;10.40;52.70;;;;;;4142994;28;20382;-84
2023/05/09 02:33:48;;;;;;;;;;;10.40;52.60;;;;;;4130821;28;20399;-84
2023/05/09 02:36:10;;;;;;;;;;;10.40;52.70;;;;;;4144266;28;20375;-84
2023/05/09 02:38:31;;;;;;;;;;;10.40;52.70;;;;;;4141210;28;20537;-84
2023/05/09 02:40:52;;;;;;;;;;;10.40;52.80;;;;;;4143808;28;21449;-84
2023/05/09 02:42:52;;;;;;;;;;;10.40;52.80;;;;;;4129451;28;19910;-84
2023/05/09 02:44:53;;;;;;;;;;;10.40;52.80;;;;;;4133772;28;19925;-84
2023/05/09 02:46:56;;;;;;;;;;;10.40;52.80;;;;;;4146506;28;19925;-84
2023/05/09 02:48:57;;;;;;;;;;;10.40;52.90;;;;;;4144783;28;19947;-84
2023/05/09 02:50:57;;;;;;;;;;;10.30;52.90;;;;;;4149190;28;19949;-83
2023/05/09 02:52:58;;;;;;;;;;;10.40;52.90;;;;;;4146099;28;19917;-85
2023/05/09 02:54:59;;;;;;;;;;;10.30;52.90;;;;;;4124323;28;19914;-83
2023/05/09 02:57:02;;;;;;;;;;;10.30;52.90;;;;;;4126598;28;19914;-83
2023/05/09 02:59:03;;;;;;;;;;;10.30;53.00;;;;;;4127186;28;19914;-83
2023/05/09 03:01:03;;;;;;;;;;;10.30;52.90;;;;;;4131211;28;19929;-83
2023/05/09 03:03:04;;;;;;;;;;;10.30;53.00;;;;;;4126263;28;19933;-83
2023/05/09 03:05:05;;;;;;;;;;;10.30;53.00;;;;;;4127636;28;19922;-84
2023/05/09 03:07:06;;;;;;;;;;;10.30;52.90;;;;;;4127861;28;19918;-84
2023/05/09 03:09:06;;;;;;;;;;;10.20;52.90;;;;;;4146899;28;19914;-84
2023/05/09 03:11:07;;;;;;;;;;;10.20;52.90;;;;;;4128276;28;20005;-84
2023/05/09 03:13:07;;;;;;;;;;;10.30;53.00;;;;;;4131084;28;19918;-84
2023/05/09 03:15:08;;;;;;;;;;;10.30;53.00;;;;;;4106253;28;19919;-84
2023/05/09 03:17:09;;;;;;;;;;;10.20;53.00;;;;;;4145478;28;19929;-84
2023/05/09 03:19:10;;;;;;;;;;;10.30;53.00;;;;;;4144638;28;19917;-84
2023/05/09 03:21:11;;;;;;;;;;;10.30;53.10;;;;;;4110380;28;19914;-84
2023/05/09 03:23:12;;;;;;;;;;;10.20;53.60;;;;;;4126981;28;19976;-85
2023/05/09 03:25:12;;;;;;;;;;;10.30;53.10;;;;;;4139953;28;20667;-84
2023/05/09 03:27:13;;;;;;;;;;;10.20;53.10;;;;;;4144639;28;20560;-84
2023/05/09 03:29:14;;;;;;;;;;;10.10;53.10;;;;;;4112772;28;19922;-84
2023/05/09 03:31:15;;;;;;;;;;;10.20;53.10;;;;;;4128249;28;19918;-84
2023/05/09 03:33:15;;;;;;;;;;;10.20;53.10;;;;;;4110582;28;19921;-84
2023/05/09 03:35:16;;;;;;;;;;;10.10;53.10;;;;;;4140157;28;19945;-84
2023/05/09 03:37:16;;;;;;;;;;;10.10;53.20;;;;;;4125879;28;19918;-83
2023/05/09 03:39:17;;;;;;;;;;;10.20;53.60;;;;;;4111608;28;19981;-83
2023/05/09 03:41:18;;;;;;;;;;;10.20;53.40;;;;;;4128359;28;19918;-83
2023/05/09 03:43:18;;;;;;;;;;;10.10;53.20;;;;;;4110144;28;20614;-83
2023/05/09 03:45:19;;;;;;;;;;;10.20;53.40;;;;;;4107918;28;19918;-85
2023/05/09 03:47:20;;;;;;;;;;;10.10;53.40;;;;;;4127293;28;20005;-83
2023/05/09 03:49:20;;;;;;;;;;;10.10;53.30;;;;;;4142820;28;19921;-85
2023/05/09 03:51:21;;;;;;;;;;;10.00;53.60;;;;;;4129095;28;19957;-84
2023/05/09 03:53:22;;;;;;;;;;;10.10;53.70;;;;;;4129706;28;19930;-85
2023/05/09 03:55:22;;;;;;;;;;;10.10;53.70;;;;;;4131471;28;20072;-83
2023/05/09 03:57:26;;;;;;;;;;;10.10;53.70;;;;;;4125812;28;19922;-84
2023/05/09 03:59:27;;;;;;;;;;;10.10;53.70;;;;;;4128530;28;19967;-84
2023/05/09 04:01:33;;;;;;;;;;;10.10;53.70;;;;;;4129723;28;19922;-84
2023/05/09 04:03:56;;;;;;;;;;;10.10;53.80;;;;;;4146875;28;19944;-84
2023/05/09 04:05:57;;;;;;;;;;;10.10;54.30;;;;;;4133649;28;20056;-84
2023/05/09 04:08:17;;;;;;;;;;;10.10;54.10;;;;;;4147993;28;19917;-84
2023/05/09 04:10:38;;;;;;;;;;;10.10;54.10;;;;;;4145897;28;20204;-85
2023/05/09 04:12:58;;;;;;;;;;;10.20;54.00;;;;;;4143374;28;19967;-85
2023/05/09 04:15:19;;;;;;;;;;;10.20;54.20;;;;;;4129118;28;19922;-83
2023/05/09 04:17:39;;;;;;;;;;;10.20;54.30;;;;;;4144191;28;19917;-84
2023/05/09 04:20:00;;;;;;;;;;;10.20;54.50;;;;;;4146835;28;19941;-83
2023/05/09 04:22:21;;;;;;;;;;;10.20;54.70;;;;;;4149648;28;20677;-85
2023/05/09 04:24:42;;;;;;;;;;;10.20;54.60;;;;;;4151281;28;19910;-84
2023/05/09 04:27:02;;;;;;;;;;;10.30;54.80;;;;;;4153100;28;19917;-81
2023/05/09 04:29:23;;;;;;;;;;;10.30;54.90;;;;;;4138214;28;19932;-84
2023/05/09 04:31:43;;;;;;;;;;;10.40;54.80;;;;;;4143146;28;19975;-84
2023/05/09 04:34:04;;;;;;;;;;;10.40;55.20;;;;;;4144713;28;20271;-83
2023/05/09 04:36:26;;;;;;;;;;;10.50;55.00;;;;;;4142753;28;19925;-84
2023/05/09 04:38:47;;;;;;;;;;;10.60;55.10;;;;;;4135291;28;20315;-83
2023/05/09 04:41:09;;;;;;;;;;;10.70;54.80;;;;;;4145663;28;20375;-83
2023/05/09 04:43:31;;;;;;;;;;;10.70;54.70;;;;;;4146023;28;20322;-83
2023/05/09 04:45:52;;;;;;;;;;;10.80;54.70;;;;;;4147085;28;19925;-83
2023/05/09 04:48:18;;;;;;;;;;;10.80;54.70;;;;;;4129597;28;19928;-85
2023/05/09 04:50:40;;;;;;;;;;;10.90;54.70;;;;;;4146531;28;20272;-84
2023/05/09 04:52:41;;;;;;;;;;;10.90;54.70;;;;;;4133127;28;19920;-84
2023/05/09 04:54:41;;;;;;;;;;;11.00;54.80;;;;;;4112806;28;19965;-84
2023/05/09 04:56:42;;;;;;;;;;;11.00;54.70;;;;;;4126030;28;19913;-83
2023/05/09 04:58:43;;;;;;;;;;;11.00;54.60;;;;;;4111626;28;20329;-84
2023/05/09 05:00:43;;;;;;;;;;;11.00;54.60;;;;;;4141552;28;19924;-85
2023/05/09 05:02:47;;;;;;;;;;;11.10;54.70;;;;;;4147217;28;19917;-82
2023/05/09 05:04:50;;;;;;;;;;;11.20;54.70;;;;;;4141030;28;19917;-83
2023/05/09 05:06:54;;;;;;;;;;;11.20;54.60;;;;;;4107889;28;20038;-83
2023/05/09 05:08:54;;;;;;;;;;;11.20;54.80;;;;;;4146859;28;19917;-83
2023/05/09 05:10:55;;;;;;;;;;;11.30;54.60;;;;;;4144348;28;19914;-83
2023/05/09 05:12:58;;;;;;;;;;;11.30;54.50;;;;;;4127382;28;19989;-83
2023/05/09 05:14:59;;;;;;;;;;;11.40;54.40;;;;;;4151579;28;19983;-83
2023/05/09 05:17:00;;;;;;;;;;;11.50;54.40;;;;;;4117349;28;19910;-84
2023/05/09 05:19:04;;;;;;;;;;;11.50;54.30;;;;;;4145717;28;19929;-83
2023/05/09 05:21:04;;;;;;;;;;;11.50;54.20;;;;;;4124439;28;20290;-82
2023/05/09 05:23:06;;;;;;;;;;;11.50;54.20;;;;;;4124085;28;19914;-82
2023/05/09 05:25:07;;;;;;;;;;;11.60;54.20;;;;;;4143225;28;19941;-83
2023/05/09 05:27:07;;;;;;;;;;;11.60;54.30;;;;;;4126510;28;20589;-82
2023/05/09 05:29:11;;;;;;;;;;;11.70;54.30;;;;;;4105855;28;20013;-83
2023/05/09 05:31:32;;;;;;;;;;;11.70;54.40;;;;;;4127264;28;20452;-84
2023/05/09 05:33:32;;;;;;;;;;;11.70;54.40;;;;;;4126729;28;19917;-83
2023/05/09 05:35:33;;;;;;;;;;;11.90;54.40;;;;;;4121048;28;20826;-82
2023/05/09 05:37:53;;;;;;;;;;;11.80;54.20;;;;;;4135415;28;19939;-85
2023/05/09 05:40:14;;;;;;;;;;;11.90;54.40;;;;;;4137096;28;19945;-84
2023/05/09 05:42:45;;;;;;;;;;;;;;;;;;;;;
2023/05/09 05:45:08;;;;;;;;;;;12.10;54.40;;;;;;4122586;28;19929;-84
2023/05/09 05:47:30;;;;;;;;;;;12.20;54.40;;;;;;4136088;28;19917;-84
2023/05/09 05:49:45;;;;;;;;;;;12.30;54.40;;;;;;4139213;28;19960;-84
2023/05/09 05:52:05;;;;;;;;;;;12.40;54.30;;;;;;4126731;28;19918;-84
2023/05/09 05:54:30;;;;;;;;;;;12.40;54.20;;;;;;4126041;28;19913;-83
2023/05/09 05:56:38;;;;;;;;;;;12.50;54.10;;;;;;4122024;28;19949;-84
2023/05/09 05:58:58;;;;;;;;;;;12.60;54.10;;;;;;4136717;28;20010;-83
2023/05/09 06:01:19;;;;;;;;;;;12.60;53.10;;;;;;4141060;28;19944;-84
2023/05/09 06:03:40;;;;;;;;;;;12.70;53.40;;;;;;4140907;28;19969;-84
2023/05/09 06:09:12;;;;;;;;;;;12.80;53.30;;;;;;4086018;29;19918;-84
2023/05/09 06:11:36;;;;;;;;;;;12.80;53.30;;;;;;4143775;28;19913;-83
2023/05/09 06:14:28;;;;;;;;;;;12.90;53.30;;;;;;4139183;28;19921;-83
2023/05/09 06:16:29;;;;;;;;;;;13.00;53.30;;;;;;4120380;28;19913;-85
2023/05/09 06:18:30;;;;;;;;;;;13.00;53.40;;;;;;4101688;28;19960;-84
2023/05/09 06:20:30;;;;;;;;;;;13.10;53.30;;;;;;4138605;28;20430;-83
2023/05/09 06:22:32;;;;;;;;;;;13.20;53.40;;;;;;4104906;28;19928;-82
2023/05/09 06:24:33;;;;;;;;;;;13.20;53.40;;;;;;4103849;28;20464;-83
2023/05/09 06:26:34;;;;;;;;;;;13.30;53.30;;;;;;4124709;28;20000;-81
2023/05/09 06:28:35;;;;;;;;;;;13.30;53.30;;;;;;4142718;28;19918;-83
2023/05/09 06:30:53;;;;;;;;;;;13.40;53.20;;;;;;4124303;28;20099;-85
2023/05/09 06:32:56;;;;;;;;;;;13.40;53.60;;;;;;4128162;28;19921;-84
2023/05/09 06:35:17;;;;;;;;;;;13.50;53.10;;;;;;4123323;28;19932;-84
2023/05/09 06:37:18;;;;;;;;;;;13.50;52.90;;;;;;4140009;28;19941;-83
2023/05/09 06:39:38;;;;;;;;;;;13.60;53.00;;;;;;4147692;28;19917;-84
2023/05/09 06:41:59;;;;;;;;;;;13.70;53.00;;;;;;4132711;28;20048;-84
2023/05/09 06:44:42;;;;;;;;;;;13.70;52.90;;;;;;4124376;28;19921;-83
2023/05/09 06:47:24;;;;;;;;;;;13.70;52.40;;;;;;4131014;28;20300;-85
2023/05/09 06:49:45;;;;;;;;;;;13.70;51.80;;;;;;4138609;28;19913;-83
2023/05/09 06:52:05;;;;;;;;;;;13.80;52.20;;;;;;4144263;28;19914;-83
2023/05/09 06:54:26;;;;;;;;;;;13.80;51.90;;;;;;4143960;28;20612;-84
2023/05/09 06:56:46;;;;;;;;;;;13.90;52.00;;;;;;4142089;28;20702;-84
2023/05/09 06:59:07;;;;;;;;;;;13.90;52.10;;;;;;4125188;28;19922;-84
2023/05/09 07:01:27;;;;;;;;;;;14.00;51.10;;;;;;4126070;28;19922;-84
2023/05/09 07:03:48;;;;;;;;;;;14.00;51.60;;;;;;4132398;28;19918;-84
2023/05/09 07:06:09;;;;;;;;;;;14.10;51.90;;;;;;4139096;28;19918;-84
2023/05/09 07:08:29;;;;;;;;;;;14.20;51.80;;;;;;4143909;28;20036;-84
2023/05/09 07:10:42;;;;;;;;;;;14.10;51.50;;;;;;4129804;28;19945;-85
2023/05/09 07:12:43;;;;;;;;;;;14.20;51.80;;;;;;4140280;28;19945;-84
2023/05/09 07:14:53;;;;;;;;;;;14.30;52.10;;;;;;4127515;28;19921;-83
2023/05/09 07:16:53;;;;;;;;;;;14.40;51.60;;;;;;4110612;28;20395;-84
2023/05/09 07:18:55;;;;;;;;;;;14.40;51.50;;;;;;4107943;28;20041;-85
2023/05/09 07:21:02;;;;;;;;;;;14.50;51.70;;;;;;4121624;28;19925;-84
2023/05/09 07:23:12;;;;;;;;;;;14.50;51.60;;;;;;4123438;28;19957;-84
2023/05/09 07:25:13;;;;;;;;;;;14.60;51.50;;;;;;4139571;28;19918;-85
2023/05/09 07:27:13;;;;;;;;;;;14.60;51.70;;;;;;4141144;28;20474;-85
2023/05/09 07:29:19;;;;;;;;;;;14.70;51.80;;;;;;4128871;28;19917;-85
2023/05/09 07:31:20;;;;;;;;;;;14.70;51.30;;;;;;4129712;28;19924;-86
2023/05/09 07:33:20;;;;;;;;;;;14.80;51.30;;;;;;4128580;28;19977;-84
2023/05/09 07:35:29;;;;;;;;;;;14.80;50.90;;;;;;4126036;28;19918;-86
2023/05/09 07:37:30;;;;;;;;;;;14.90;51.30;;;;;;4121177;28;19986;-87
2023/05/09 07:39:31;;;;;;;;;;;15.00;51.90;;;;;;4176337;22;19931;-84
2023/05/09 07:41:32;;;;;;;;;;;15.20;52.10;;;;;;4112257;28;19929;-83
2023/05/09 07:43:32;;;;;;;;;;;15.20;52.00;;;;;;4109714;28;19918;-84
2023/05/09 07:45:35;;;;;;;;;;;15.30;51.60;;;;;;4096871;28;19924;-82
2023/05/09 07:47:35;;;;;;;;;;;15.40;51.70;;;;;;4113465;28;20846;-84
2023/05/09 07:49:56;;;;;;;;;;;15.40;50.70;;;;;;4092376;28;19965;-86
2023/05/09 07:52:17;;;;;;;;;;;15.50;51.40;;;;;;4097778;28;19952;-85
2023/05/09 07:54:37;;;;;;;;;;;15.60;51.50;;;;;;4093961;28;19918;-84
2023/05/09 07:56:58;;;;;;;;;;;15.70;51.00;;;;;;4099848;28;20351;-85
2023/05/09 07:59:19;;;;;;;;;;;15.80;51.10;;;;;;4093108;28;19929;-85
2023/05/09 08:01:39;;;;;;;;;;;15.90;51.40;;;;;;4095244;28;19928;-84
2023/05/09 08:04:00;;;;;;;;;;;16.00;51.00;;;;;;4089117;28;19919;-85
2023/05/09 08:06:07;;;;;;;;;;;16.10;50.80;;;;;;4094324;28;19918;-85
2023/05/09 08:08:27;;;;;;;;;;;16.10;50.90;;;;;;4100506;28;19915;-84
2023/05/09 08:10:48;;;;;;;;;;;16.20;51.10;;;;;;4092557;28;20263;-84
2023/05/09 08:13:14;;;;;;;;;;;16.40;51.20;;;;;;4092119;28;19994;-83
2023/05/09 08:15:34;;;;;;;;;;;16.40;50.30;;;;;;4092204;28;19922;-84
2023/05/09 08:17:55;;;;;;;;;;;16.40;49.50;;;;;;4093648;28;20290;-85
2023/05/09 08:20:19;;;;;;;;;;;16.50;49.60;;;;;;4095342;28;19942;-86
2023/05/09 08:22:40;;;;;;;;;;;16.50;49.40;;;;;;4098901;28;19919;-84
2023/05/09 08:25:00;;;;;;;;;;;16.60;49.80;;;;;;4101025;28;19914;-83
2023/05/09 08:27:21;;;;;;;;;;;16.60;49.50;;;;;;4085982;28;19933;-83
2023/05/09 08:29:42;;;;;;;;;;;16.60;49.50;;;;;;4097873;28;20018;-83
2023/05/09 08:31:42;;;;;;;;;;;16.60;49.50;;;;;;4094813;28;20570;-84
2023/05/09 08:33:43;;;;;;;;;;;16.60;49.50;;;;;;4095642;28;20241;-85
2023/05/09 08:35:44;;;;;;;;;;;16.60;49.60;;;;;;4078836;29;19955;-86
2023/05/09 08:37:47;;;;;;;;;;;16.60;49.40;;;;;;4077383;29;19915;-84
2023/05/09 08:39:56;;;;;;;;;;;16.60;49.30;;;;;;4095865;28;19927;-84
2023/05/09 08:41:58;;;;;;;;;;;16.70;49.90;;;;;;4078867;29;20305;-86
2023/05/09 08:43:59;;;;;;;;;;;16.70;49.70;;;;;;4091988;28;19914;-85
2023/05/09 08:46:06;;;;;;;;;;;16.80;49.60;;;;;;4093600;28;20390;-84
2023/05/09 08:48:12;;;;;;;;;;;16.80;49.40;;;;;;4094768;28;19922;-84
2023/05/09 08:50:16;;;;;;;;;;;16.80;50.00;;;;;;4092124;28;20017;-86
2023/05/09 08:52:19;;;;;;;;;;;17.00;50.20;;;;;;4095582;28;19926;-83
2023/05/09 08:54:23;;;;;;;;;;;17.00;49.50;;;;;;4096538;28;20409;-83
2023/05/09 08:56:25;;;;;;;;;;;17.10;49.00;;;;;;4095099;28;20008;-84
2023/05/09 08:58:26;;;;;;;;;;;17.10;49.00;;;;;;4092984;28;19915;-85
2023/05/09 09:00:28;;;;;;;;;;;17.10;49.40;;;;;;4097619;28;19922;-83
2023/05/09 09:02:30;;;;;;;;;;;17.20;49.60;;;;;;4094337;28;20825;-84
2023/05/09 09:04:34;;;;;;;;;;;17.30;49.80;;;;;;4095347;28;19960;-84
2023/05/09 09:06:37;;;;;;;;;;;17.30;49.10;;;;;;4095653;28;19989;-85
2023/05/09 09:08:48;;;;;;;;;;;17.40;49.20;;;;;;4076378;29;19942;-84
2023/05/09 09:11:06;;;;;;;;;;;17.40;49.60;;;;;;4098419;28;19918;-85
2023/05/09 09:13:22;;;;;;;;;;;17.50;49.50;;;;;;4111880;28;19919;-83
2023/05/09 09:15:43;;;;;;;;;;;17.60;49.50;;;;;;4109351;28;19926;-83
2023/05/09 09:18:06;;;;;;;;;;;17.70;49.50;;;;;;4110425;28;19917;-85
2023/05/09 09:20:15;;;;;;;;;;;17.70;49.40;;;;;;4092599;28;19923;-85
2023/05/09 09:22:36;;;;;;;;;;;17.80;49.30;;;;;;4091569;28;21035;-85
2023/05/09 09:24:57;;;;;;;;;;;17.90;49.50;;;;;;4095392;28;19918;-84
2023/05/09 09:27:18;;;;;;;;;;;18.00;49.10;;;;;;4097202;28;19922;-85
2023/05/09 09:29:39;;;;;;;;;;;18.00;48.80;;;;;;4099200;28;19969;-86
2023/05/09 09:32:26;;;;;;;;;;;18.10;47.80;;;;;;4097764;28;19917;-84
2023/05/09 09:34:49;;;;;;;;;;;18.00;47.70;;;;;;4094896;28;19922;-84
2023/05/09 09:37:20;;;;;;;;;;;18.10;48.00;;;;;;4094463;28;20009;-84
2023/05/09 09:39:52;;;;;;;;;;;18.10;48.20;;;;;;4092060;28;19973;-87
2023/05/09 09:42:12;;;;;;;;;;;18.20;48.10;;;;;;4096290;28;19922;-87
2023/05/09 09:44:33;;;;;;;;;;;18.10;48.20;;;;;;4090295;28;19973;-83
2023/05/09 09:46:54;;;;;;;;;;;18.20;48.60;;;;;;4091133;28;19969;-85
2023/05/09 09:49:16;;;;;;;;;;;18.20;48.10;;;;;;4096490;28;19922;-86
2023/05/09 09:51:36;;;;;;;;;;;18.30;47.70;;;;;;4092567;28;19985;-84
2023/05/09 09:54:00;;;;;;;;;;;18.40;48.70;;;;;;4093415;28;19919;-85
2023/05/09 09:56:01;;;;;;;;;;;18.40;48.50;;;;;;4094796;28;19919;-84
2023/05/09 09:58:14;;;;;;;;;;;18.50;47.80;;;;;;4078285;29;20014;-85
2023/05/09 10:00:16;;;;;;;;;;;18.50;48.00;;;;;;4097336;28;20577;-85
2023/05/09 10:02:22;;;;;;;;;;;18.60;48.10;;;;;;4080265;29;20246;-84
2023/05/09 10:04:30;;;;;;;;;;;18.60;47.60;;;;;;4093346;28;19918;-85
2023/05/09 10:06:36;;;;;;;;;;;18.70;47.90;;;;;;4094025;28;19922;-85
2023/05/09 10:08:40;;;;;;;;;;;18.70;47.70;;;;;;4087252;28;19969;-84
2023/05/09 10:10:41;;;;;;;;;;;18.80;47.90;;;;;;4091326;28;19922;-86
2023/05/09 10:12:42;;;;;;;;;;;18.80;47.90;;;;;;4097837;28;19918;-84
2023/05/09 10:14:46;;;;;;;;;;;18.90;47.70;;;;;;4097029;28;19919;-85
2023/05/09 10:19:46;;;;;;;;;;;18.90;47.20;;;;;;4065344;29;19926;-85
2023/05/09 10:22:18;;;;;;;;;;;19.00;47.40;;;;;;4061661;29;19919;-84
2023/05/09 10:24:38;;;;;;;;;;;19.00;47.10;;;;;;4072548;28;19965;-85
2023/05/09 10:27:20;;;;;;;;;;;19.00;47.50;;;;;;4088231;28;19954;-83
2023/05/09 10:29:22;;;;;;;;;;;19.10;47.40;;;;;;4030930;29;19927;-85
2023/05/09 10:37:20;;;;;;;;;;;19.20;47.00;;;;;;4033480;29;19923;-83
2023/05/09 10:39:21;;;;;;;;;;;19.30;47.40;;;;;;4517802;23;19988;-84
2023/05/09 10:41:22;;;;;;;;;;;19.20;46.50;;;;;;4152434;28;19921;-85
2023/05/09 10:43:38;;;;;;;;;;;19.30;47.20;;;;;;4152438;28;19921;-85
2023/05/09 10:45:43;;;;;;;;;;;19.30;47.00;;;;;;4138574;28;19960;-85
2023/05/09 10:50:39;;;;;;;;;;;;;;;;;;;;;
2023/05/09 10:53:06;;;;;;;;;;;19.50;48.00;;;;;;4118935;28;19957;-83
2023/05/09 10:55:37;;;;;;;;;;;19.60;47.90;;;;;;4120499;28;20302;-84
2023/05/09 11:00:57;;;;;;;;;;;19.70;47.50;;;;;;4103181;28;19922;-84
2023/05/09 11:03:06;;;;;;;;;;;19.80;47.40;;;;;;4100477;28;19922;-85
2023/05/09 11:06:00;;;;;;;;;;;19.80;47.60;;;;;;4104021;28;19966;-85
2023/05/09 11:08:29;;;;;;;;;;;19.90;47.60;;;;;;4107708;28;19922;-84
2023/05/09 11:10:50;;;;;;;;;;;19.90;47.60;;;;;;4109683;28;20508;-85
2023/05/09 11:12:53;;;;;;;;;;;20.00;47.60;;;;;;4090097;28;20795;-85
2023/05/09 11:15:22;;;;;;;;;;;20.00;46.80;;;;;;4107167;28;19929;-85
2023/05/09 11:17:43;;;;;;;;;;;20.00;47.50;;;;;;4102543;28;19938;-84
2023/05/09 11:19:51;;;;;;;;;;;20.10;48.00;;;;;;4124612;28;19929;-84
2023/05/09 11:22:18;;;;;;;;;;;20.10;47.80;;;;;;4119474;28;19917;-86
2023/05/09 11:25:00;;;;;;;;;;;20.20;46.80;;;;;;4110479;28;19922;-86
2023/05/09 11:30:14;;;;;;;;;;;20.30;46.90;;;;;;4101888;28;20505;-84
2023/05/09 11:32:48;;;;;;;;;;;20.30;46.80;;;;;;4103780;28;19977;-85
2023/05/09 11:35:19;;;;;;;;;;;20.40;46.40;;;;;;4104650;28;19997;-85
2023/05/09 11:37:46;;;;;;;;;;;20.30;46.60;;;;;;4109538;28;19928;-84
2023/05/09 11:40:10;;;;;;;;;;;20.40;45.70;;;;;;4098008;28;19929;-82
2023/05/09 11:42:57;;;;;;;;;;;20.30;45.90;;;;;;4104063;28;20012;-83
2023/05/09 11:50:35;;;;;;;;;;;20.30;45.10;;;;;;4662802;23;20028;-86
2023/05/09 11:52:57;;;;;;;;;;;20.30;45.70;;;;;;4149957;28;19981;-84
2023/05/09 11:57:22;;;;;;;;;;;20.40;46.20;;;;;;4133431;28;20411;-84
2023/05/09 11:59:23;;;;;;;;;;;20.40;46.40;;;;;;4154287;28;19968;-86
2023/05/09 12:01:34;;;;;;;;;;;20.50;45.90;;;;;;4154378;28;19929;-85
2023/05/09 12:03:34;;;;;;;;;;;20.60;45.60;;;;;;4135212;28;20869;-86
2023/05/09 12:08:14;;;;;;;;;;;20.60;44.60;;;;;;4147818;28;19983;-84
2023/05/09 12:10:30;;;;;;;;;;;20.70;45.60;;;;;;4155846;28;19983;-82
2023/05/09 12:12:37;;;;;;;;;;;20.70;45.10;;;;;;4159330;28;19921;-83
2023/05/09 12:14:43;;;;;;;;;;;20.80;45.20;;;;;;4139077;28;20411;-84
2023/05/09 12:16:53;;;;;;;;;;;20.90;45.30;;;;;;4130167;28;19970;-85
2023/05/09 12:19:10;;;;;;;;;;;20.90;44.80;;;;;;4138011;28;20003;-85
2023/05/09 12:21:16;;;;;;;;;;;20.90;44.90;;;;;;4136442;28;20965;-84
2023/05/09 12:23:41;;;;;;;;;;;21.00;44.20;;;;;;4156495;28;19996;-84
2023/05/09 12:25:54;;;;;;;;;;;21.00;44.70;;;;;;4150912;28;19921;-83
2023/05/09 12:27:56;;;;;;;;;;;21.00;44.00;;;;;;4154220;28;20477;-84
2023/05/09 12:30:07;;;;;;;;;;;21.00;43.50;;;;;;4121995;28;19921;-84
2023/05/09 12:32:08;;;;;;;;;;;21.00;43.70;;;;;;4139807;28;20035;-84
2023/05/09 12:34:11;;;;;;;;;;;21.00;43.70;;;;;;4157513;28;19928;-83
2023/05/09 12:36:12;;;;;;;;;;;21.00;43.80;;;;;;4139428;28;19921;-83
2023/05/09 12:40:27;;;;;;;;;;;21.00;43.80;;;;;;4134220;22;19988;-84
2023/05/09 12:42:28;;;;;;;;;;;21.10;43.90;;;;;;4112401;28;19971;-83
2023/05/09 12:44:31;;;;;;;;;;;21.00;42.80;;;;;;4125293;28;19944;-83
2023/05/09 12:46:32;;;;;;;;;;;21.10;43.30;;;;;;4111357;28;20061;-83
2023/05/09 12:48:39;;;;;;;;;;;21.10;43.40;;;;;;4122716;28;19925;-85
2023/05/09 12:50:45;;;;;;;;;;;21.10;43.30;;;;;;4109414;28;19957;-85
2023/05/09 12:52:49;;;;;;;;;;;21.00;43.30;;;;;;4104316;28;19919;-83
2023/05/09 12:55:19;;;;;;;;;;;21.00;43.40;;;;;;4110010;28;19929;-83
2023/05/09 12:57:41;;;;;;;;;;;20.90;43.10;;;;;;4098444;28;19922;-84
2023/05/09 13:03:20;;;;;;;;;;;20.80;42.40;;;;;;4130965;28;21196;-83
2023/05/09 13:05:40;;;;;;;;;;;20.80;42.70;;;;;;4117057;28;19930;-84
2023/05/09 13:08:26;;;;;;;;;;;20.70;43.00;;;;;;4112752;28;19973;-84
2023/05/09 13:10:30;;;;;;;;;;;20.70;43.00;;;;;;4109613;28;19929;-85
2023/05/09 13:12:52;;;;;;;;;;;20.70;43.20;;;;;;4116332;28;19941;-84
2023/05/09 13:15:13;;;;;;;;;;;20.60;43.80;;;;;;4124566;28;20363;-83
2023/05/09 13:17:15;;;;;;;;;;;20.60;43.50;;;;;;4113721;28;19989;-84
2023/05/09 13:19:16;;;;;;;;;;;20.60;43.60;;;;;;4112431;28;19922;-82
2023/05/09 13:21:37;;;;;;;;;;;20.50;43.10;;;;;;4077667;28;20288;-82